Latest Weather Observations for Warwick

IDQ60801

Issued at 4:33 pm EST Tuesday 28 June 2022 (issued every 10 minutes, with the page automatically refreshed every 10 minutes)

About weather observations | Map of weather stations | Latest weather observations for QLD | Other Formats
Station Details ID: 041525 Name: WARWICK Lat: -28.21 Lon: 152.10 Height: 475.4 m
Data from the previous 72 hours. | See also: Recent months at Warwick
Date/Time
EST
Temp
°C
App
Temp
°C
Dew
Point
°C
Rel
Hum
%
Delta-T
°C
Wind Press
QNH
hPa
Press
MSL
hPa
Rain since
9am
mm
Dir  Spd
km/h
Gust
km/h
Spd
kts
Gust
kts
28/04:30pm 13.6 9.0 1.3 43 5.4 SE 15 24 8 13 1024.8 1024.7 0.0
28/04:00pm 14.2 9.2 1.2 41 5.7 SE 17 26 9 14 1024.7 1024.6 0.0
28/03:30pm 14.7 9.7 1.6 41 5.9 SSE 17 26 9 14 1024.8 1024.7 0.0
28/03:00pm 15.2 9.8 1.4 39 6.2 SE 19 30 10 16 1024.6 1024.5 0.0
28/02:30pm 15.1 9.7 1.3 39 6.2 SE 19 30 10 16 1024.7 1024.6 0.0
28/02:00pm 15.5 10.0 1.6 39 6.2 SSE 20 32 11 17 1024.9 1024.8 0.0
28/01:30pm 15.6 10.0 1.4 38 6.4 SE 20 32 11 17 1024.9 1024.8 0.0
28/01:00pm 15.5 9.9 1.3 38 6.3 SE 20 35 11 19 1025.1 1025.0 0.0
28/12:30pm 15.1 9.1 1.3 39 6.2 SE 22 35 12 19 1025.5 1025.4 0.0
28/12:00pm 14.7 9.2 0.5 38 6.2 SE 19 35 10 19 1025.8 1025.7 0.0
28/11:30am 14.5 9.4 0.7 39 6.1 SE 17 30 9 16 1026.2 1026.0 0.0
28/11:00am 14.1 8.6 0.7 40 5.8 SE 19 30 10 16 1026.5 1026.4 0.0
28/10:30am 13.8 8.7 0.5 40 5.8 SE 17 30 9 16 1026.5 1026.4 0.0
28/10:00am 12.7 6.9 0.1 42 5.3 SE 20 35 11 19 1026.7 1026.6 0.0
28/09:30am 12.5 7.7 0.3 43 5.2 SE 15 24 8 13 1026.6 1026.5 0.0
28/09:00am 11.2 5.9 -0.9 43 4.9 SE 17 28 9 15 1026.3 1026.2 0.0
28/08:30am 9.3 5.5 -1.1 48 4.2 SE 9 20 5 11 1026.2 1026.0 0.0
28/08:00am 6.7 3.5 -3.8 47 3.8 SSE 4 9 2 5 1026.0 1025.9 0.0
28/07:30am 5.8 3.2 -4.9 46 3.7 CALM 0 6 0 3 1025.7 1025.6 0.0
28/07:00am 4.9 2.0 -3.9 53 3.1 ENE 2 13 1 7 1025.7 1025.6 0.0
28/06:30am 4.5 2.0 -4.2 53 3.1 CALM 0 6 0 3 1025.3 1025.2 0.0
28/06:00am 3.7 0.0 -2.9 62 2.4 NE 7 11 4 6 1024.8 1024.7 0.0
28/05:30am 3.7 0.4 -4.0 57 2.7 ESE 4 7 2 4 1024.6 1024.5 0.0
28/05:00am 3.6 1.1 -3.6 59 2.5 CALM 0 0 0 0 1024.5 1024.4 0.0
28/04:30am 2.7 0.2 -3.6 63 2.2 CALM 0 0 0 0 1024.2 1024.0 0.0
28/04:00am 4.0 1.5 -4.2 55 2.8 CALM 0 0 0 0 1024.0 1023.8 0.0
28/03:30am 4.3 2.0 -2.5 61 2.5 CALM 0 0 0 0 1024.3 1024.1 0.0
28/03:00am 3.4 0.5 -4.1 58 2.6 W 2 7 1 4 1024.4 1024.2 0.0
28/02:30am 3.7 1.2 -4.0 57 2.7 CALM 0 0 0 0 1024.3 1024.1 0.0
28/02:00am 4.2 1.7 -4.3 54 2.9 CALM 0 0 0 0 1024.2 1024.0 0.0
28/01:30am 5.4 2.6 -3.6 52 3.2 ENE 2 6 1 3 1024.2 1024.0 0.0
28/01:00am 4.6 2.0 -5.4 48 3.4 CALM 0 0 0 0 1024.5 1024.4 0.0
28/12:30am 5.6 1.9 -2.5 56 3.0 NE 7 7 4 4 1024.6 1024.5 0.0
28/12:00am 6.3 3.9 -2.8 52 3.4 CALM 0 0 0 0 1024.6 1024.5 0.0
 
Date/Time
EST
Temp
°C
App
Temp
°C
Dew
Point
°C
Rel
Hum
%
Delta-T
°C
Wind Press
QNH
hPa
Press
MSL
hPa
Rain since
9am
mm
Dir  Spd
km/h
Gust
km/h
Spd
kts
Gust
kts
27/11:30pm 5.7 3.3 -2.9 54 3.2 CALM 0 0 0 0 1024.8 1024.7 0.0
27/11:00pm 6.9 4.5 -3.3 48 3.7 CALM 0 0 0 0 1024.7 1024.6 0.0
27/10:30pm 7.7 5.3 -2.9 47 4.0 CALM 0 0 0 0 1024.5 1024.4 0.0
27/10:00pm 7.7 5.2 -3.8 44 4.2 CALM 0 0 0 0 1024.2 1024.0 0.0
27/09:30pm 5.2 1.5 -2.8 56 2.9 NNE 7 11 4 6 1024.1 1023.9 0.0
27/09:00pm 7.1 3.3 -3.4 47 3.9 NNE 7 9 4 5 1024.0 1023.8 0.0
27/08:30pm 6.8 3.7 -2.6 51 3.5 N 4 9 2 5 1023.8 1023.7 0.0
27/08:00pm 8.7 6.3 -3.2 43 4.5 CALM 0 0 0 0 1023.5 1023.4 0.0
27/07:30pm 10.2 6.6 -2.4 41 4.9 W 7 11 4 6 1023.2 1023.1 0.0
27/07:00pm 9.9 6.2 -2.7 41 4.9 W 7 11 4 6 1023.0 1022.9 0.0
27/06:30pm 11.0 6.5 -3.1 37 5.5 WSW 11 17 6 9 1022.8 1022.7 0.0
27/06:00pm 11.0 7.4 -2.4 39 5.3 W 7 13 4 7 1022.5 1022.3 0.0
27/05:30pm 11.4 7.3 -3.1 36 5.7 WSW 9 13 5 7 1022.2 1022.0 0.0
27/05:00pm 13.9 8.1 -1.3 35 6.3 SW 19 24 10 13 1021.8 1021.6 0.0
27/04:30pm 15.6 9.8 -0.2 34 6.9 SW 20 28 11 15 1021.7 1021.5 0.0
27/04:00pm 16.6 11.1 0.3 33 7.2 WSW 19 30 10 16 1021.4 1021.3 0.0
27/03:30pm 16.9 10.8 0.5 33 7.3 WSW 22 35 12 19 1021.2 1021.1 0.0
27/03:00pm 17.2 10.3 -0.1 31 7.6 WSW 26 41 14 22 1021.3 1021.2 0.0
27/02:30pm 17.7 11.5 -0.1 30 7.9 WSW 22 41 12 22 1021.3 1021.2 0.0
27/02:00pm 17.8 11.6 0.0 30 7.9 WSW 22 35 12 19 1021.3 1021.2 0.0
27/01:30pm 18.4 12.8 1.0 31 7.9 WSW 20 35 11 19 1021.2 1021.1 0.0
27/01:00pm 18.3 13.3 1.3 32 7.8 WSW 17 26 9 14 1021.7 1021.5 0.0
27/12:30pm 17.8 11.8 0.9 32 7.7 SW 22 30 12 16 1022.1 1021.9 0.0
27/12:00pm 17.3 13.9 2.1 36 7.0 SSW 9 19 5 10 1022.7 1022.6 0.0
27/11:30am 16.5 13.7 1.8 37 6.7 W 6 13 3 7 1023.4 1023.3 0.0
27/11:00am 15.8 13.0 1.9 39 6.3 WSW 6 11 3 6 1023.7 1023.6 0.0
27/10:30am 13.8 10.3 1.5 43 5.5 W 9 13 5 7 1024.3 1024.1 0.0
27/10:00am 11.5 9.8 2.0 52 4.2 CALM 0 0 0 0 1024.5 1024.4 0.0
27/09:30am 8.8 5.7 1.2 59 3.2 SW 7 11 4 6 1025.2 1025.1 0.0
27/09:00am 6.2 3.2 -1.7 57 3.0 W 4 7 2 4 1025.1 1025.0 0.0
27/08:30am 4.1 0.1 -2.5 62 2.4 WSW 9 13 5 7 1024.9 1024.8 0.0
27/08:00am 3.9 1.4 -4.3 55 2.8 CALM 0 0 0 0 1024.2 1024.0 0.0
27/07:30am 3.0 0.4 -5.4 54 2.8 CALM 0 0 0 0 1024.3 1024.1 0.0
27/07:00am 3.8 1.3 -3.9 57 2.7 CALM 0 6 0 3 1024.3 1024.1 0.0
27/06:30am 3.4 1.0 -3.4 61 2.4 CALM 0 0 0 0 1024.4 1024.2 0.0
27/06:00am 3.2 0.8 -3.4 62 2.3 CALM 0 0 0 0 1024.3 1024.1 0.0
27/05:30am 3.0 0.5 -3.8 61 2.4 CALM 0 0 0 0 1023.8 1023.7 0.0
27/05:00am 2.7 -0.3 -4.9 57 2.5 WSW 2 7 1 4 1023.6 1023.5 0.0
27/04:30am 1.4 -2.1 -5.9 58 2.4 WSW 4 11 2 6 1023.7 1023.6 0.0
27/04:00am 1.4 -1.7 -5.9 58 2.4 S 2 9 1 5 1023.7 1023.6 0.0
27/03:30am 3.0 -0.7 -4.2 59 2.5 ENE 6 7 3 4 1024.0 1023.8 0.0
27/03:00am 2.4 -1.8 -3.5 65 2.0 NE 9 11 5 6 1024.2 1024.0 0.0
27/02:30am 3.0 -0.6 -3.8 61 2.4 ENE 6 9 3 5 1024.5 1024.4 0.0
27/02:00am 2.4 -0.3 -5.7 55 2.8 CALM 0 0 0 0 1025.2 1025.1 0.0
27/01:30am 3.1 0.5 -5.0 55 2.7 CALM 0 0 0 0 1024.9 1024.8 0.0
27/01:00am 3.1 0.5 -5.3 54 2.8 CALM 0 4 0 2 1025.2 1025.1 0.0
27/12:30am 4.2 1.7 -4.0 55 2.9 CALM 0 6 0 3 1025.4 1025.3 0.0
27/12:00am 4.0 1.2 -3.3 59 2.6 E 2 7 1 4 1025.4 1025.3 0.0
 
Date/Time
EST
Temp
°C
App
Temp
°C
Dew
Point
°C
Rel
Hum
%
Delta-T
°C
Wind Press
QNH
hPa
Press
MSL
hPa
Rain since
9am
mm
Dir  Spd
km/h
Gust
km/h
Spd
kts
Gust
kts
26/11:30pm 4.6 2.1 -4.4 52 3.1 CALM 0 0 0 0 1025.5 1025.4 0.0
26/11:00pm 5.4 3.1 -2.0 59 2.8 CALM 0 0 0 0 1025.7 1025.6 0.0
26/10:30pm 6.5 4.4 -0.7 60 2.8 CALM 0 0 0 0 1025.4 1025.3 0.0
26/10:00pm 6.2 3.9 -2.4 54 3.2 CALM 0 6 0 3 1025.2 1025.1 0.0
26/09:30pm 6.3 3.6 -2.3 54 3.2 SSW 2 7 1 4 1025.5 1025.4 0.0
26/09:00pm 7.4 5.2 -1.5 53 3.4 CALM 0 0 0 0 1025.2 1025.1 0.0
26/08:30pm 8.6 6.5 -0.9 51 3.8 CALM 0 0 0 0 1025.1 1025.0 0.0
26/08:00pm 8.0 5.3 -2.3 48 3.9 WSW 2 9 1 5 1025.0 1024.9 0.0
26/07:30pm 8.1 5.7 -3.4 44 4.3 CALM 0 0 0 0 1024.7 1024.6 0.0
26/07:00pm 8.8 5.0 -1.0 50 3.9 NE 9 13 5 7 1024.3 1024.1 0.0
26/06:30pm 9.3 6.2 -2.3 44 4.5 E 4 9 2 5 1024.2 1024.0 0.0
26/06:00pm 10.8 7.6 -0.6 45 4.7 NNW 6 9 3 5 1023.6 1023.5 0.0
26/05:30pm 12.0 8.2 -0.5 42 5.2 N 9 11 5 6 1023.4 1023.3 0.0
26/05:00pm 12.3 10.4 0.4 44 5.1 CALM 0 0 0 0 1023.2 1023.1 0.0
26/04:30pm 14.3 12.3 0.2 38 6.1 CALM 0 0 0 0 1023.3 1023.2 0.0
26/04:00pm 18.9 15.6 -1.0 26 8.7 W 6 11 3 6 1023.1 1023.0 0.0
26/03:30pm 18.8 16.1 -2.2 24 9.0 NNW 2 11 1 6 1023.0 1022.9 0.0
26/03:00pm 18.5 15.3 -0.8 27 8.5 SSW 6 15 3 8 1023.0 1022.9 0.0
26/02:30pm 18.5 15.1 -0.8 27 8.5 SW 7 11 4 6 1023.2 1023.1 0.0
26/02:00pm 18.9 15.0 -1.5 25 8.8 WNW 9 15 5 8 1023.3 1023.2 0.0
26/01:30pm 19.0 15.2 -0.4 27 8.6 WNW 9 17 5 9 1023.7 1023.6 0.0
26/01:00pm 18.5 14.8 -0.3 28 8.3 W 9 13 5 7 1024.2 1024.0 0.0
26/12:30pm 18.5 15.2 -1.3 26 8.6 NW 6 11 3 6 1024.2 1024.0 0.0
26/12:00pm 17.9 14.5 -0.4 29 8.0 N 7 13 4 7 1024.7 1024.6 0.0
26/11:30am 17.1 14.1 1.1 34 7.2 SE 6 9 3 5 1025.3 1025.2 0.0
26/11:00am 15.7 13.9 1.1 37 6.5 CALM 0 0 0 0 1025.7 1025.6 0.0
26/10:30am 12.9 10.8 -0.7 39 5.7 CALM 0 0 0 0 1025.8 1025.7 0.0
26/10:00am 11.8 9.9 0.3 45 4.8 CALM 0 0 0 0 1025.9 1025.8 0.0
26/09:30am 10.2 8.1 -0.6 47 4.4 CALM 0 0 0 0 1026.2 1026.0 0.0
26/09:00am 8.6 6.4 -1.8 48 4.0 CALM 0 0 0 0 1026.2 1026.0 0.0
26/08:30am 5.5 3.0 -3.8 51 3.3 CALM 0 0 0 0 1026.2 1026.0 0.0
26/08:00am 1.3 -1.5 -7.0 54 2.7 CALM 0 0 0 0 1026.0 1025.9 0.0
26/07:30am -0.2 -3.2 -9.1 51 2.6 CALM 0 0 0 0 1025.9 1025.8 0.0
26/07:00am -0.3 -3.2 -8.2 55 2.3 CALM 0 0 0 0 1025.8 1025.7 0.0
26/06:30am -0.1 -3.7 -7.6 57 2.3 NE 4 7 2 4 1025.8 1025.7 0.0
26/06:00am 0.2 -2.7 -7.5 56 2.4 CALM 0 0 0 0 1025.3 1025.2 0.0
26/05:30am 1.0 -1.7 -6.1 59 2.3 CALM 0 0 0 0 1025.0 1024.9 0.0
26/05:00am 0.4 -2.5 -8.0 53 2.6 CALM 0 0 0 0 1024.8 1024.7 0.0
26/04:30am 0.3 -2.5 -7.2 57 2.3 CALM 0 0 0 0 1024.4 1024.2 0.0
26/04:00am 0.4 -2.4 -7.3 56 2.4 CALM 0 0 0 0 1024.2 1024.0 0.0
26/03:30am 0.1 -2.8 -7.8 55 2.4 CALM 0 0 0 0 1024.1 1023.9 0.0
26/03:00am 1.4 -1.3 -5.7 59 2.4 CALM 0 0 0 0 1024.1 1023.9 0.0
26/02:30am 1.3 -1.5 -6.7 55 2.6 CALM 0 0 0 0 1024.3 1024.1 0.0
26/02:00am 2.3 -0.3 -4.9 59 2.5 CALM 0 0 0 0 1024.4 1024.2 0.0
26/01:30am 2.6 0.0 -4.8 58 2.5 CALM 0 0 0 0 1024.6 1024.5 0.0
26/01:00am 2.4 -0.1 -4.1 62 2.2 CALM 0 0 0 0 1024.6 1024.5 0.0
26/12:30am 3.0 0.4 -4.7 57 2.6 CALM 0 0 0 0 1024.6 1024.5 0.0
26/12:00am 3.3 0.8 -4.2 58 2.6 CALM 0 0 0 0 1024.7 1024.6 0.0
 
Date/Time
EST
Temp
°C
App
Temp
°C
Dew
Point
°C
Rel
Hum
%
Delta-T
°C
Wind Press
QNH
hPa
Press
MSL
hPa
Rain since
9am
mm
Dir  Spd
km/h
Gust
km/h
Spd
kts
Gust
kts
25/11:30pm 3.0 0.4 -5.4 54 2.8 CALM 0 0 0 0 1024.7 1024.6 0.0
25/11:00pm 4.1 1.6 -3.6 57 2.7 CALM 0 0 0 0 1024.7 1024.6 0.0
25/10:30pm 3.7 1.1 -4.7 54 2.9 CALM 0 0 0 0 1024.9 1024.8 0.0
25/10:00pm 4.5 1.1 -5.5 48 3.4 E 4 7 2 4 1024.8 1024.7 0.0
25/09:30pm 5.4 2.9 -3.6 52 3.2 CALM 0 0 0 0 1024.8 1024.7 0.0
25/09:00pm 5.5 3.0 -3.8 51 3.3 CALM 0 0 0 0 1024.7 1024.6 0.0
25/08:30pm 6.3 3.7 -4.7 45 3.9 CALM 0 0 0 0 1024.6 1024.5 0.0
25/08:00pm 6.3 3.7 -4.7 45 3.9 CALM 0 0 0 0 1024.3 1024.1 0.0
25/07:30pm 9.5 6.8 -2.4 43 4.6 NNW 2 7 1 4 1024.1 1023.9 0.0
25/07:00pm 9.5 6.3 -3.1 41 4.8 SSW 4 9 2 5 1023.5 1023.4 0.0
25/06:30pm 13.2 9.2 -2.3 34 6.3 WNW 9 15 5 8 1022.9 1022.8 0.0
25/06:00pm 14.3 9.9 -2.1 32 6.7 WNW 11 15 6 8 1022.5 1022.3 0.0
25/05:30pm 15.0 10.7 -2.0 31 7.1 WNW 11 15 6 8 1022.0 1021.8 0.0
25/05:00pm 14.9 10.6 -1.6 32 6.9 NW 11 13 6 7 1021.8 1021.6 0.0

Other formats

Comma delimited format used in spreadsheet applications
http://www.bom.gov.au/fwo/IDQ60801/IDQ60801.94555.axf

JavaScript Object Notation format (JSON) in row-major order
http://www.bom.gov.au/fwo/IDQ60801/IDQ60801.94555.json

Data quality

Most of these data are generated automatically and are frequently updated. Quality checks on data are not normally performed. It is possible for incorrect values to appear. Refer to information at About Latest Weather Observations and please check the disclaimer before using these data.